Time;durP1;ratioP1;P1;durP2;ratioP2;P2;SDS_P1;SDS_P2;PMS_P1;PMS_P2;Temp;Humidity;BMP_temperature;BMP_pressure;BME280_temperature;BME280_humidity;BME280_pressure;Samples;Min_cycle;Max_cycle;Signal;HPM_P1;HPM_P2
2022/03/04 00:02:01;;;;;;;15.73;8.50;;;1.20;99.90;;;;;;5010313;28;20029;-85
2022/03/04 00:04:28;;;;;;;16.50;8.80;;;1.20;99.90;;;;;;5016638;28;20041;-86
2022/03/04 00:06:54;;;;;;;16.57;9.17;;;1.10;99.90;;;;;;5031618;28;20032;-86
2022/03/04 00:09:20;;;;;;;15.20;8.90;;;1.10;99.90;;;;;;5032688;28;20037;-86
2022/03/04 00:11:47;;;;;;;14.03;8.60;;;1.10;99.90;;;;;;5032772;28;20029;-87
2022/03/04 00:14:13;;;;;;;16.93;9.90;;;1.10;99.90;;;;;;5015487;28;20033;-86
2022/03/04 00:16:38;;;;;;;15.00;8.77;;;1.10;99.90;;;;;;5032883;28;20122;-87
2022/03/04 00:19:07;;;;;;;16.37;8.70;;;1.10;99.90;;;;;;5016037;28;20048;-87
2022/03/04 00:21:39;;;;;;;15.73;9.43;;;1.00;99.90;;;;;;5015973;28;20119;-87
2022/03/04 00:24:06;;;;;;;17.97;10.27;;;1.00;99.90;;;;;;5014586;28;20128;-86
2022/03/04 00:26:32;;;;;;;16.97;9.47;;;1.00;99.90;;;;;;5030581;28;20131;-86
2022/03/04 00:28:58;;;;;;;17.03;9.43;;;1.00;99.90;;;;;;5012670;28;20131;-87
2022/03/04 00:31:24;;;;;;;14.70;8.93;;;1.00;99.90;;;;;;5015621;28;20040;-86
2022/03/04 00:33:50;;;;;;;16.50;8.77;;;0.90;99.90;;;;;;5014310;28;20383;-87
2022/03/04 00:36:16;;;;;;;15.57;9.40;;;0.90;99.90;;;;;;5032619;28;20730;-87
2022/03/04 00:38:41;;;;;;;16.77;10.17;;;0.90;99.90;;;;;;5032891;28;20068;-87
2022/03/04 00:41:07;;;;;;;18.47;9.30;;;0.90;99.90;;;;;;5031086;28;20025;-86
2022/03/04 00:43:33;;;;;;;18.17;9.83;;;0.80;99.90;;;;;;5032692;28;20047;-86
2022/03/04 00:45:59;;;;;;;16.77;9.73;;;0.80;99.90;;;;;;5027726;28;20538;-86
2022/03/04 00:48:24;;;;;;;18.13;9.67;;;0.80;99.90;;;;;;5024954;28;20060;-86
2022/03/04 00:50:50;;;;;;;20.90;10.60;;;0.80;99.90;;;;;;5016482;28;20036;-86
2022/03/04 00:53:16;;;;;;;18.50;10.20;;;0.80;99.90;;;;;;5030286;28;20097;-86
2022/03/04 00:55:41;;;;;;;17.20;10.03;;;0.80;99.90;;;;;;5015737;28;20037;-86
2022/03/04 00:58:07;;;;;;;17.90;9.57;;;0.70;99.90;;;;;;5032037;28;20039;-87
2022/03/04 01:00:34;;;;;;;21.97;10.10;;;0.70;99.90;;;;;;5016378;28;20040;-86
2022/03/04 01:03:01;;;;;;;18.63;10.10;;;0.70;99.90;;;;;;5011946;28;20026;-86
2022/03/04 01:05:27;;;;;;;19.63;10.73;;;0.70;99.90;;;;;;5012714;28;20208;-86
2022/03/04 01:07:52;;;;;;;16.03;9.60;;;0.70;99.90;;;;;;5032655;28;20045;-86
2022/03/04 01:10:18;;;;;;;19.97;10.60;;;0.60;99.90;;;;;;5030762;28;20126;-86
2022/03/04 01:12:43;;;;;;;18.90;9.63;;;0.60;99.90;;;;;;5032249;28;20040;-86
2022/03/04 01:15:09;;;;;;;19.30;10.47;;;0.60;99.90;;;;;;5018439;28;20087;-86
2022/03/04 01:17:35;;;;;;;20.20;10.50;;;0.60;99.90;;;;;;5035460;28;20087;-86
2022/03/04 01:20:02;;;;;;;19.40;10.90;;;0.60;99.90;;;;;;5036283;28;20033;-86
2022/03/04 01:22:27;;;;;;;21.70;10.47;;;0.50;99.90;;;;;;5035383;28;20474;-86
2022/03/04 01:24:53;;;;;;;17.17;10.67;;;0.50;99.90;;;;;;5035415;28;20215;-86
2022/03/04 01:27:19;;;;;;;17.60;10.27;;;0.50;99.90;;;;;;5018876;28;20032;-86
2022/03/04 01:29:45;;;;;;;19.80;10.37;;;0.50;99.90;;;;;;5030000;28;20033;-86
2022/03/04 01:32:11;;;;;;;18.70;10.60;;;0.50;99.90;;;;;;5035861;28;20049;-86
2022/03/04 01:34:37;;;;;;;18.80;10.93;;;0.50;99.90;;;;;;5016761;28;20179;-86
2022/03/04 01:37:03;;;;;;;21.47;10.53;;;0.40;99.90;;;;;;5019192;28;20112;-86
2022/03/04 01:39:29;;;;;;;18.97;10.33;;;0.40;99.90;;;;;;5035214;28;20531;-87
2022/03/04 01:41:55;;;;;;;18.80;10.70;;;0.40;99.90;;;;;;5017494;28;20174;-85
2022/03/04 01:44:21;;;;;;;17.43;10.30;;;0.30;99.90;;;;;;5035275;28;20044;-86
2022/03/04 01:46:46;;;;;;;20.00;10.97;;;0.30;99.90;;;;;;5035447;28;20520;-86
2022/03/04 01:49:12;;;;;;;19.80;10.63;;;0.30;99.90;;;;;;5027968;28;20056;-86
2022/03/04 01:51:38;;;;;;;20.27;10.90;;;0.20;99.90;;;;;;5034961;28;20128;-86
2022/03/04 01:54:04;;;;;;;22.57;11.43;;;0.30;99.90;;;;;;5018229;28;20139;-86
2022/03/04 01:56:30;;;;;;;18.83;10.40;;;0.20;99.90;;;;;;5034210;28;20495;-86
2022/03/04 01:58:56;;;;;;;19.80;11.13;;;0.20;99.90;;;;;;5018988;28;20040;-87
2022/03/04 02:01:22;;;;;;;24.13;12.13;;;0.20;99.90;;;;;;5035024;28;20041;-86
2022/03/04 02:03:47;;;;;;;23.33;11.37;;;0.20;99.90;;;;;;5035115;28;20083;-86
2022/03/04 02:06:13;;;;;;;20.87;11.53;;;0.10;99.90;;;;;;5034613;28;20033;-86
2022/03/04 02:08:38;;;;;;;21.63;12.10;;;0.10;99.90;;;;;;5015963;28;20073;-86
2022/03/04 02:11:04;;;;;;;23.20;11.63;;;0.10;99.90;;;;;;5014805;28;20133;-86
2022/03/04 02:13:31;;;;;;;23.67;12.00;;;0.10;99.90;;;;;;5016425;28;20072;-86
2022/03/04 02:15:56;;;;;;;22.63;11.67;;;0.10;99.90;;;;;;5016054;28;20047;-86
2022/03/04 02:18:22;;;;;;;25.00;12.50;;;0.10;99.90;;;;;;5035374;28;20111;-86
2022/03/04 02:20:50;;;;;;;25.20;12.43;;;0.00;99.90;;;;;;5034384;28;20087;-86
2022/03/04 02:23:16;;;;;;;24.07;12.43;;;0.00;99.90;;;;;;5034994;28;20029;-86
2022/03/04 02:25:47;;;;;;;27.37;13.17;;;0.00;99.90;;;;;;5034380;28;20033;-87
2022/03/04 02:28:13;;;;;;;24.90;13.00;;;0.00;99.90;;;;;;5029121;28;20048;-86
2022/03/04 02:30:39;;;;;;;23.30;11.83;;;0.00;99.90;;;;;;5034102;28;20041;-87
2022/03/04 02:33:06;;;;;;;24.60;12.47;;;0.00;99.90;;;;;;5034226;28;20420;-86
2022/03/04 02:35:33;;;;;;;26.60;12.67;;;0.00;99.90;;;;;;5033102;28;20041;-86
2022/03/04 02:37:59;;;;;;;25.13;12.97;;;-0.10;99.90;;;;;;5034026;28;20029;-86
2022/03/04 02:40:25;;;;;;;23.03;12.27;;;-0.10;99.90;;;;;;5032743;28;20036;-87
2022/03/04 02:42:51;;;;;;;23.47;12.63;;;-0.10;99.90;;;;;;5016951;28;20040;-87
2022/03/04 02:45:17;;;;;;;25.47;13.87;;;-0.20;99.90;;;;;;5017288;28;20045;-86
2022/03/04 02:47:43;;;;;;;24.57;13.37;;;-0.20;99.90;;;;;;5034602;28;20039;-86
2022/03/04 02:50:09;;;;;;;27.03;13.50;;;-0.20;99.90;;;;;;5017783;28;20156;-87
2022/03/04 02:52:34;;;;;;;25.63;12.93;;;-0.20;99.90;;;;;;5031920;28;20117;-87
2022/03/04 02:55:00;;;;;;;25.50;13.53;;;-0.20;99.90;;;;;;5014613;28;20190;-86
2022/03/04 02:57:26;;;;;;;23.33;13.30;;;-0.20;99.90;;;;;;5033472;28;20064;-87
2022/03/04 02:59:51;;;;;;;23.20;12.63;;;-0.30;99.90;;;;;;5033682;28;20033;-87
2022/03/04 03:02:17;;;;;;;24.83;12.80;;;-0.30;99.90;;;;;;5016945;28;20029;-85
2022/03/04 03:04:42;;;;;;;24.77;12.97;;;-0.30;99.90;;;;;;5033910;28;20060;-86
2022/03/04 03:07:08;;;;;;;24.03;12.97;;;-0.40;99.90;;;;;;5033606;28;20399;-87
2022/03/04 03:09:34;;;;;;;24.23;13.43;;;-0.30;99.90;;;;;;5017180;28;20402;-85
2022/03/04 03:12:00;;;;;;;25.23;13.13;;;-0.40;99.90;;;;;;5016677;28;20036;-86
2022/03/04 03:14:25;;;;;;;26.23;13.60;;;-0.40;99.90;;;;;;5017526;28;20049;-86
2022/03/04 03:16:51;;;;;;;24.33;12.47;;;-0.40;99.90;;;;;;5017797;28;20146;-86
2022/03/04 03:19:17;;;;;;;23.53;12.13;;;-0.20;99.90;;;;;;5052342;28;20040;-86
2022/03/04 03:21:42;;;;;;;24.53;12.57;;;-0.50;99.90;;;;;;5033443;28;20116;-86
2022/03/04 03:24:08;;;;;;;24.27;13.13;;;-0.50;99.90;;;;;;5033218;28;20082;-86
2022/03/04 03:26:34;;;;;;;27.37;13.97;;;-0.50;99.90;;;;;;5015292;28;20449;-86
2022/03/04 03:28:59;;;;;;;25.67;12.80;;;-0.50;99.90;;;;;;5017337;28;20067;-86
2022/03/04 03:31:25;;;;;;;25.87;12.90;;;-0.50;99.90;;;;;;5033498;28;20041;-87
2022/03/04 03:33:50;;;;;;;25.97;13.60;;;-0.60;99.90;;;;;;5033211;28;20414;-86
2022/03/04 03:36:16;;;;;;;24.60;13.33;;;-0.60;99.90;;;;;;5016119;28;20041;-86
2022/03/04 03:38:42;;;;;;;26.03;13.37;;;-0.60;99.90;;;;;;5032865;28;20032;-87
2022/03/04 03:41:07;;;;;;;27.23;13.10;;;-0.60;99.90;;;;;;5032645;28;20461;-86
2022/03/04 03:43:33;;;;;;;25.03;13.67;;;-0.70;99.90;;;;;;5016544;28;20499;-87
2022/03/04 03:45:59;;;;;;;28.87;14.27;;;-0.70;99.90;;;;;;5017230;28;20413;-87
2022/03/04 03:48:24;;;;;;;24.93;13.67;;;-0.70;99.90;;;;;;5033826;28;20043;-86
2022/03/04 03:50:50;;;;;;;27.13;14.20;;;-0.70;99.90;;;;;;5032766;28;20033;-87
2022/03/04 03:53:16;;;;;;;25.73;14.00;;;-0.70;99.90;;;;;;5016839;28;20123;-87
2022/03/04 03:55:41;;;;;;;24.37;13.33;;;-0.80;99.90;;;;;;5032128;28;20117;-87
2022/03/04 03:58:07;;;;;;;23.47;12.53;;;-0.80;99.90;;;;;;5033101;28;20087;-86
2022/03/04 04:00:33;;;;;;;25.77;12.70;;;-0.80;99.90;;;;;;5033107;28;20037;-86
2022/03/04 04:02:58;;;;;;;25.00;13.37;;;-0.80;99.90;;;;;;5015499;28;20029;-87
2022/03/04 04:05:24;;;;;;;27.43;13.13;;;-0.90;99.90;;;;;;5031657;28;20521;-87
2022/03/04 04:07:49;;;;;;;28.43;13.97;;;-0.90;99.90;;;;;;5033495;28;20033;-86
2022/03/04 04:10:15;;;;;;;29.60;13.90;;;-1.00;99.90;;;;;;5033203;28;20045;-86
2022/03/04 04:12:40;;;;;;;25.53;13.10;;;-1.00;99.90;;;;;;5032748;28;20037;-85
2022/03/04 04:15:06;;;;;;;28.43;14.37;;;-1.00;99.90;;;;;;5016392;28;20041;-87
2022/03/04 04:17:32;;;;;;;27.90;14.13;;;-1.00;99.90;;;;;;5015590;28;20041;-87
2022/03/04 04:19:57;;;;;;;29.27;15.00;;;-1.00;99.90;;;;;;5017222;28;20037;-86
2022/03/04 04:22:23;;;;;;;31.27;15.33;;;-1.00;99.90;;;;;;5016843;28;20029;-87
2022/03/04 04:24:48;;;;;;;27.37;14.10;;;-1.00;99.90;;;;;;5014842;28;20045;-87
2022/03/04 04:27:14;;;;;;;29.70;14.47;;;-1.00;99.90;;;;;;5026738;28;20045;-86
2022/03/04 04:29:40;;;;;;;26.90;14.73;;;-1.00;99.90;;;;;;5032913;28;20037;-85
2022/03/04 04:32:05;;;;;;;26.13;13.37;;;-1.10;99.90;;;;;;5014090;28;20087;-86
2022/03/04 04:34:31;;;;;;;26.33;13.73;;;-1.10;99.90;;;;;;5014792;28;20048;-86
2022/03/04 04:36:56;;;;;;;28.30;14.57;;;-1.00;99.90;;;;;;5032085;28;20025;-87
2022/03/04 04:39:22;;;;;;;29.70;13.80;;;-1.00;99.90;;;;;;5032632;28;20499;-86
2022/03/04 04:41:48;;;;;;;27.47;13.70;;;-1.00;99.90;;;;;;5016715;28;20499;-86
2022/03/04 04:44:13;;;;;;;31.77;14.10;;;-1.00;99.90;;;;;;5032208;28;20033;-86
2022/03/04 04:46:39;;;;;;;27.77;14.03;;;-0.90;99.90;;;;;;5014400;28;20049;-87
2022/03/04 04:49:04;;;;;;;28.47;13.97;;;-1.00;99.90;;;;;;5034981;28;20045;-86
2022/03/04 04:51:30;;;;;;;25.67;13.90;;;-0.90;99.90;;;;;;5036406;28;20037;-86
2022/03/04 04:53:55;;;;;;;29.80;15.07;;;-1.00;99.90;;;;;;5036027;28;20037;-86
2022/03/04 04:56:21;;;;;;;31.07;14.97;;;-0.90;99.90;;;;;;5035932;28;20052;-86
2022/03/04 04:58:47;;;;;;;27.27;14.70;;;-0.90;99.90;;;;;;5036703;28;20518;-86
2022/03/04 05:01:12;;;;;;;30.07;14.90;;;-0.90;99.90;;;;;;5035958;28;20043;-86
2022/03/04 05:03:38;;;;;;;31.00;15.17;;;-0.90;99.90;;;;;;5017244;28;20038;-86
2022/03/04 05:06:03;;;;;;;28.80;14.27;;;-0.90;99.90;;;;;;5019773;28;20037;-87
2022/03/04 05:08:29;;;;;;;27.50;14.20;;;-0.90;99.90;;;;;;5036054;28;20036;-87
2022/03/04 05:10:58;;;;;;;28.40;13.83;;;-0.90;99.90;;;;;;5019164;28;20398;-88
2022/03/04 05:13:24;;;;;;;30.30;14.77;;;-0.90;99.90;;;;;;5027735;28;20052;-86
2022/03/04 05:15:50;;;;;;;28.37;14.83;;;-0.90;99.90;;;;;;5034334;28;20037;-87
2022/03/04 05:18:15;;;;;;;27.13;14.43;;;-0.90;99.90;;;;;;5036100;28;20025;-86
2022/03/04 05:20:41;;;;;;;27.57;15.57;;;-0.90;99.90;;;;;;5036120;28;20465;-86
2022/03/04 05:23:07;;;;;;;28.60;15.53;;;-0.90;99.90;;;;;;5035661;28;20033;-86
2022/03/04 05:25:33;;;;;;;29.10;15.90;;;-0.90;99.90;;;;;;5019169;28;20043;-85
2022/03/04 05:27:59;;;;;;;32.93;16.13;;;-0.80;99.90;;;;;;5035628;28;20115;-86
2022/03/04 05:30:24;;;;;;;31.60;15.27;;;-0.90;99.90;;;;;;5017698;28;20375;-86
2022/03/04 05:32:50;;;;;;;31.00;15.17;;;-0.90;99.90;;;;;;5036050;28;20037;-85
2022/03/04 05:35:15;;;;;;;31.47;15.13;;;-0.80;99.90;;;;;;5029823;28;20045;-86
2022/03/04 05:37:41;;;;;;;30.07;15.07;;;-0.80;99.90;;;;;;5035019;28;20116;-86
2022/03/04 05:40:07;;;;;;;32.23;15.73;;;-0.80;99.90;;;;;;5018039;28;20128;-86
2022/03/04 05:42:33;;;;;;;30.53;16.17;;;-0.80;99.90;;;;;;5032177;28;20491;-86
2022/03/04 05:44:59;;;;;;;34.10;15.97;;;-0.80;99.90;;;;;;5031385;28;20082;-87
2022/03/04 05:47:24;;;;;;;33.40;16.17;;;-0.80;99.90;;;;;;5009958;28;20041;-86
2022/03/04 05:49:50;;;;;;;29.83;15.57;;;-0.80;99.90;;;;;;5017716;28;20037;-86
2022/03/04 05:52:16;;;;;;;30.10;16.00;;;-0.80;99.90;;;;;;5034516;28;20044;-86
2022/03/04 05:54:41;;;;;;;30.27;16.43;;;-0.80;99.90;;;;;;5018640;28;20040;-86
2022/03/04 05:57:07;;;;;;;30.23;15.07;;;-0.80;99.90;;;;;;5035956;28;20525;-86
2022/03/04 05:59:32;;;;;;;31.50;15.77;;;-0.80;99.90;;;;;;5033800;28;20143;-84
2022/03/04 06:01:58;;;;;;;31.47;15.83;;;-0.90;99.90;;;;;;5035135;28;20384;-87
2022/03/04 06:04:23;;;;;;;32.57;16.03;;;-0.90;99.90;;;;;;5018177;28;20132;-88
2022/03/04 06:06:49;;;;;;;29.13;15.07;;;-0.90;99.90;;;;;;5017944;28;20037;-86
2022/03/04 06:09:14;;;;;;;31.90;15.70;;;-0.90;99.90;;;;;;5014740;28;20033;-88
2022/03/04 06:11:40;;;;;;;34.23;15.53;;;-0.90;99.90;;;;;;5033899;28;20067;-86
2022/03/04 06:14:06;;;;;;;33.73;16.10;;;-0.90;99.90;;;;;;5018171;28;20041;-87
2022/03/04 06:16:32;;;;;;;28.50;15.17;;;-0.90;99.90;;;;;;5018578;28;20045;-87
2022/03/04 06:18:58;;;;;;;30.87;16.53;;;-0.90;99.90;;;;;;5018783;28;20033;-87
2022/03/04 06:21:24;;;;;;;32.90;16.57;;;-0.90;99.90;;;;;;5031794;28;20554;-87
2022/03/04 06:23:50;;;;;;;35.20;16.93;;;-0.90;99.90;;;;;;5011514;28;20040;-87
2022/03/04 06:26:15;;;;;;;33.97;16.97;;;-0.90;99.90;;;;;;5018377;28;20037;-87
2022/03/04 06:28:41;;;;;;;30.70;15.80;;;-0.90;99.90;;;;;;5035376;28;20099;-87
2022/03/04 06:31:06;;;;;;;33.60;17.17;;;-0.80;99.90;;;;;;5032345;28;20059;-86
2022/03/04 06:33:32;;;;;;;34.57;16.83;;;-0.80;99.90;;;;;;5032983;28;20048;-86
2022/03/04 06:36:12;;;;;;;33.67;16.57;;;-0.80;99.90;;;;;;5021159;28;20042;-86
2022/03/04 06:38:41;;;;;;;29.83;16.00;;;-0.80;99.90;;;;;;5010271;28;20036;-86
2022/03/04 06:41:06;;;;;;;33.87;16.50;;;-0.80;99.90;;;;;;5024590;28;20056;-85
2022/03/04 06:43:33;;;;;;;27.97;14.73;;;-0.80;99.90;;;;;;5015207;28;20029;-86
2022/03/04 06:45:58;;;;;;;31.43;16.73;;;-0.70;99.90;;;;;;5016761;28;20041;-85
2022/03/04 06:48:25;;;;;;;34.30;16.30;;;-0.70;99.90;;;;;;5002770;28;20044;-86
2022/03/04 06:50:51;;;;;;;31.63;16.63;;;-0.70;99.90;;;;;;5022069;28;20055;-85
2022/03/04 06:53:17;;;;;;;27.90;15.10;;;-0.70;99.90;;;;;;5044312;28;20521;-85
2022/03/04 06:55:44;;;;;;;34.63;16.63;;;-0.70;99.90;;;;;;5008223;28;20124;-85
2022/03/04 06:58:09;;;;;;;35.77;17.50;;;-0.70;99.90;;;;;;5023078;28;20036;-86
2022/03/04 07:00:35;;;;;;;33.13;16.53;;;-0.70;99.90;;;;;;5012708;28;20479;-86
2022/03/04 07:03:01;;;;;;;30.70;15.87;;;-0.70;99.90;;;;;;5033038;28;20037;-85
2022/03/04 07:05:27;;;;;;;31.70;16.43;;;-0.70;99.90;;;;;;5027221;28;20525;-86
2022/03/04 07:07:54;;;;;;;31.33;16.00;;;-0.70;99.90;;;;;;5010132;28;20040;-86
2022/03/04 07:10:20;;;;;;;30.10;16.40;;;-0.60;99.90;;;;;;5029574;28;20037;-86
2022/03/04 07:12:47;;;;;;;29.93;15.87;;;-0.60;99.90;;;;;;5031130;28;20088;-86
2022/03/04 07:15:13;;;;;;;31.87;16.03;;;-0.60;99.90;;;;;;5024199;28;20041;-87
2022/03/04 07:17:38;;;;;;;30.90;16.13;;;-0.60;99.90;;;;;;5024477;28;20041;-86
2022/03/04 07:20:06;;;;;;;26.17;14.67;;;-0.60;99.90;;;;;;5014530;28;20115;-86
2022/03/04 07:22:32;;;;;;;34.07;17.30;;;-0.60;99.90;;;;;;4998259;28;20034;-86
2022/03/04 07:24:57;;;;;;;33.00;16.27;;;-0.60;99.90;;;;;;5030586;28;20410;-86
2022/03/04 07:27:23;;;;;;;30.67;16.20;;;-0.60;99.90;;;;;;5030630;28;20045;-86
2022/03/04 07:29:48;;;;;;;30.93;16.50;;;-0.50;99.90;;;;;;5015624;28;20103;-86
2022/03/04 07:32:14;;;;;;;32.37;16.07;;;-0.50;99.90;;;;;;5026786;28;20521;-86
2022/03/04 07:34:40;;;;;;;32.40;15.97;;;-0.50;99.90;;;;;;5010680;28;20664;-87
2022/03/04 07:37:06;;;;;;;33.40;15.73;;;-0.50;99.90;;;;;;5017924;28;20033;-86
2022/03/04 07:39:32;;;;;;;29.90;15.53;;;-0.40;99.90;;;;;;5002382;28;20034;-87
2022/03/04 07:41:58;;;;;;;27.13;14.60;;;-0.40;99.90;;;;;;5034064;28;20437;-87
2022/03/04 07:44:24;;;;;;;28.90;16.20;;;-0.30;99.90;;;;;;5007347;28;20498;-87
2022/03/04 07:46:49;;;;;;;29.73;15.57;;;-0.40;99.90;;;;;;5027891;28;20037;-86
2022/03/04 07:49:15;;;;;;;32.43;15.63;;;-0.40;99.90;;;;;;5026913;28;20471;-86
2022/03/04 07:51:41;;;;;;;29.70;15.33;;;-0.30;99.90;;;;;;5034073;28;20578;-85
2022/03/04 07:54:06;;;;;;;29.50;16.23;;;-0.30;99.90;;;;;;5033890;28;20118;-86
2022/03/04 07:56:32;;;;;;;26.03;14.83;;;-0.30;99.90;;;;;;5016278;28;20041;-85
2022/03/04 07:58:57;;;;;;;30.27;15.03;;;-0.20;99.90;;;;;;5033265;28;20063;-86
2022/03/04 08:01:23;;;;;;;28.10;15.57;;;-0.20;99.90;;;;;;5017463;28;20052;-86
2022/03/04 08:03:49;;;;;;;29.13;15.87;;;-0.20;99.90;;;;;;5017646;28;20045;-86
2022/03/04 08:06:15;;;;;;;28.30;14.83;;;-0.10;99.90;;;;;;5033663;28;20045;-86
2022/03/04 08:08:40;;;;;;;27.23;15.37;;;-0.20;99.90;;;;;;5017303;28;20052;-85
2022/03/04 08:11:06;;;;;;;29.30;14.80;;;-0.20;99.90;;;;;;5033479;28;20406;-85
2022/03/04 08:13:34;;;;;;;30.77;15.30;;;-0.10;99.90;;;;;;5034067;28;20040;-86
2022/03/04 08:16:00;;;;;;;27.07;15.60;;;-0.10;99.90;;;;;;5033391;28;20473;-86
2022/03/04 08:18:25;;;;;;;27.33;14.70;;;0.00;99.90;;;;;;5017135;28;20076;-85
2022/03/04 08:20:51;;;;;;;27.63;14.80;;;0.10;99.90;;;;;;5033582;28;20128;-86
2022/03/04 08:23:18;;;;;;;26.33;14.20;;;0.10;99.90;;;;;;5035497;28;20033;-86
2022/03/04 08:25:44;;;;;;;26.40;14.27;;;0.10;99.90;;;;;;5039758;28;20048;-85
2022/03/04 08:28:10;;;;;;;31.67;15.17;;;0.20;99.90;;;;;;5040214;28;20076;-85
2022/03/04 08:30:36;;;;;;;26.27;14.33;;;0.20;99.90;;;;;;5040432;28;20444;-86
2022/03/04 08:33:01;;;;;;;27.17;14.40;;;0.20;99.90;;;;;;5040118;28;20124;-87
2022/03/04 08:35:27;;;;;;;29.87;15.90;;;0.20;99.90;;;;;;5042041;28;20142;-86
2022/03/04 08:37:53;;;;;;;32.57;16.33;;;0.10;99.90;;;;;;5046635;28;20040;-86
2022/03/04 08:40:19;;;;;;;30.13;15.70;;;0.10;99.90;;;;;;5040258;28;20033;-85
2022/03/04 08:42:45;;;;;;;27.27;15.33;;;0.20;99.90;;;;;;5039865;28;20035;-85
2022/03/04 08:45:13;;;;;;;28.97;15.47;;;0.30;99.90;;;;;;5023122;28;20036;-86
2022/03/04 08:47:41;;;;;;;30.43;15.80;;;0.30;99.90;;;;;;5039872;28;20080;-86
2022/03/04 08:50:08;;;;;;;33.70;16.57;;;0.40;99.90;;;;;;5039921;28;20045;-86
2022/03/04 08:52:34;;;;;;;29.40;15.57;;;0.50;99.90;;;;;;5023598;28;20523;-85
2022/03/04 08:55:00;;;;;;;26.97;15.47;;;0.60;99.90;;;;;;5039708;28;20045;-86
2022/03/04 08:57:26;;;;;;;30.57;16.43;;;0.60;99.90;;;;;;5021662;28;20040;-86
2022/03/04 08:59:51;;;;;;;30.13;16.30;;;0.60;99.90;;;;;;5040083;28;20041;-86
2022/03/04 09:02:17;;;;;;;29.23;15.80;;;0.60;99.90;;;;;;5023555;28;20067;-87
2022/03/04 09:04:42;;;;;;;32.47;16.37;;;0.70;99.90;;;;;;5022167;28;20037;-87
2022/03/04 09:07:08;;;;;;;29.43;15.73;;;0.80;99.90;;;;;;5023491;28;20033;-86
2022/03/04 09:09:35;;;;;;;29.60;16.33;;;0.80;99.90;;;;;;5039811;28;20102;-86
2022/03/04 09:12:00;;;;;;;30.40;16.67;;;1.00;99.90;;;;;;5023485;28;20121;-86
2022/03/04 09:14:27;;;;;;;31.03;16.33;;;1.10;99.90;;;;;;5023196;28;20052;-86
2022/03/04 09:16:53;;;;;;;29.80;16.30;;;1.30;99.90;;;;;;5039473;28;20041;-86
2022/03/04 09:19:19;;;;;;;30.57;16.87;;;1.40;99.90;;;;;;5039733;28;20052;-86
2022/03/04 09:21:47;;;;;;;29.57;17.43;;;1.30;99.90;;;;;;5037808;28;20044;-86
2022/03/04 09:24:13;;;;;;;30.07;15.73;;;1.50;99.90;;;;;;5037571;28;20072;-86
2022/03/04 09:26:39;;;;;;;31.17;16.80;;;1.50;99.90;;;;;;5022942;28;20041;-86
2022/03/04 09:29:05;;;;;;;30.07;15.53;;;1.70;99.90;;;;;;5021964;28;20067;-86
2022/03/04 09:31:31;;;;;;;31.37;16.47;;;1.80;99.90;;;;;;5038904;28;20067;-86
2022/03/04 09:33:56;;;;;;;27.53;15.03;;;1.80;99.90;;;;;;5022577;28;20040;-87
2022/03/04 09:36:22;;;;;;;28.23;15.47;;;1.80;99.90;;;;;;5033454;28;20037;-86
2022/03/04 09:38:48;;;;;;;27.37;15.27;;;1.70;99.90;;;;;;5036403;28;20045;-86
2022/03/04 09:41:14;;;;;;;26.53;15.40;;;1.60;99.90;;;;;;5034464;28;20047;-86
2022/03/04 09:43:41;;;;;;;26.87;15.33;;;1.60;99.90;;;;;;5011645;28;20497;-86
2022/03/04 09:46:07;;;;;;;24.87;14.83;;;1.60;99.90;;;;;;5017686;28;20159;-86
2022/03/04 09:48:39;;;;;;;28.53;15.67;;;1.60;99.90;;;;;;5026332;28;20033;-87
2022/03/04 09:51:08;;;;;;;28.37;15.90;;;1.70;99.90;;;;;;5036371;28;20037;-86
2022/03/04 09:53:35;;;;;;;26.43;15.40;;;1.80;99.90;;;;;;5036006;28;20042;-86
2022/03/04 09:56:01;;;;;;;26.87;15.63;;;1.90;99.90;;;;;;5019019;28;20051;-86
2022/03/04 09:58:26;;;;;;;27.67;15.60;;;2.10;99.90;;;;;;5036093;28;20033;-85
2022/03/04 10:00:52;;;;;;;25.53;14.37;;;2.20;99.90;;;;;;5019533;28;20060;-86
2022/03/04 10:03:40;;;;;;;29.00;16.03;;;2.30;99.90;;;;;;5033847;28;20043;-86
2022/03/04 10:06:06;;;;;;;25.17;14.23;;;2.30;99.90;;;;;;5002756;28;20116;-86
2022/03/04 10:08:44;;;;;;;24.83;15.13;;;2.30;99.90;;;;;;5023901;28;20194;-86
2022/03/04 10:11:11;;;;;;;26.03;14.27;;;2.30;99.90;;;;;;5035744;28;20498;-87
2022/03/04 10:13:49;;;;;;;24.73;15.10;;;2.30;99.90;;;;;;5033768;28;20049;-86
2022/03/04 10:16:30;;;;;;;22.33;13.93;;;2.40;99.90;;;;;;5013809;28;20033;-87
2022/03/04 10:19:15;;;;;;;27.73;14.50;;;2.60;99.90;;;;;;5011955;28;20060;-87
2022/03/04 10:21:53;;;;;;;23.83;14.17;;;2.70;99.90;;;;;;5026832;28;20036;-87
2022/03/04 10:24:31;;;;;;;21.97;14.57;;;2.90;99.90;;;;;;5006157;28;20507;-87
2022/03/04 10:27:09;;;;;;;22.97;13.83;;;2.90;99.90;;;;;;5017203;28;20117;-87
2022/03/04 10:30:03;;;;;;;23.83;14.27;;;3.00;99.90;;;;;;5021191;28;20293;-86
2022/03/04 10:32:28;;;;;;;24.37;14.40;;;3.20;99.90;;;;;;5026866;28;20080;-87
2022/03/04 10:35:01;;;;;;;23.30;13.93;;;3.30;99.90;;;;;;5005009;28;20493;-87
2022/03/04 10:37:56;;;;;;;23.17;13.97;;;3.30;99.90;;;;;;5033920;28;20082;-87
2022/03/04 10:40:32;;;;;;;21.57;13.80;;;3.50;99.90;;;;;;5007361;28;20558;-86
2022/03/04 10:43:05;;;;;;;23.10;14.27;;;3.50;99.90;;;;;;5014061;28;20033;-87
2022/03/04 10:45:33;;;;;;;24.37;14.77;;;3.60;99.90;;;;;;5017490;28;20037;-87
2022/03/04 10:48:09;;;;;;;22.83;13.83;;;3.70;99.90;;;;;;5011442;28;20036;-87
2022/03/04 10:50:44;;;;;;;24.42;15.02;;;3.90;99.90;;;;;;5034974;28;20045;-87
2022/03/04 10:53:15;;;;;;;24.15;14.27;;;4.00;99.90;;;;;;5018564;28;20045;-87
2022/03/04 10:55:53;;;;;;;25.08;14.48;;;4.10;99.90;;;;;;5018131;28;20056;-86
2022/03/04 10:58:23;;;;;;;24.20;14.18;;;4.20;99.90;;;;;;5018511;28;20060;-87
2022/03/04 11:00:54;;;;;;;25.10;15.68;;;4.40;99.90;;;;;;5034521;28;20407;-86
2022/03/04 11:03:30;;;;;;;23.33;14.05;;;4.50;99.90;;;;;;5033412;28;20082;-86
2022/03/04 11:06:15;;;;;;;23.35;14.68;;;4.60;99.90;;;;;;5015977;28;20044;-86
2022/03/04 11:08:45;;;;;;;25.63;15.25;;;4.70;99.90;;;;;;5014319;28;20036;-87
2022/03/04 11:11:11;;;;;;;25.60;14.68;;;4.80;99.90;;;;;;5034228;28;20045;-87
2022/03/04 11:13:37;;;;;;;22.45;14.73;;;5.00;99.90;;;;;;5017332;28;20072;-86
2022/03/04 11:16:05;;;;;;;25.17;15.32;;;5.00;99.90;;;;;;5017521;28;20410;-85
2022/03/04 11:18:30;;;;;;;23.05;13.82;;;5.10;99.90;;;;;;5034302;28;20036;-87
2022/03/04 11:20:57;;;;;;;22.35;13.30;;;5.20;99.90;;;;;;5034719;28;20044;-86
2022/03/04 11:23:26;;;;;;;22.85;15.05;;;5.30;99.90;;;;;;5051662;28;20398;-85
2022/03/04 11:26:04;;;;;;;22.80;14.85;;;5.40;99.90;;;;;;5051964;28;20041;-87
2022/03/04 11:28:37;;;;;;;21.40;13.68;;;5.50;99.90;;;;;;5014539;28;20044;-86
2022/03/04 11:31:06;;;;;;;23.35;14.50;;;5.60;99.90;;;;;;4998067;28;20045;-86
2022/03/04 11:33:34;;;;;;;23.45;14.18;;;5.80;99.90;;;;;;4997479;28;20045;-87
2022/03/04 11:36:04;;;;;;;21.52;14.23;;;5.90;99.90;;;;;;4997476;28;20135;-87
2022/03/04 11:38:48;;;;;;;21.88;13.93;;;6.00;99.90;;;;;;4997929;28;20040;-87
2022/03/04 11:41:22;;;;;;;19.80;13.07;;;6.00;99.90;;;;;;5014599;28;20470;-88
2022/03/04 11:43:59;;;;;;;21.67;13.20;;;6.30;99.90;;;;;;4997999;28;20067;-89
2022/03/04 11:46:49;;;;;;;22.30;13.85;;;6.20;99.90;;;;;;4997755;28;20041;-87
2022/03/04 11:49:48;;;;;;;20.85;14.13;;;6.30;99.90;;;;;;5014258;28;20041;-87
2022/03/04 11:52:26;;;;;;;20.85;13.80;;;6.40;99.90;;;;;;5013319;28;20079;-88
2022/03/04 11:54:51;;;;;;;20.40;13.32;;;6.60;99.90;;;;;;4995999;28;20365;-87
2022/03/04 11:57:26;;;;;;;19.65;12.73;;;6.70;99.90;;;;;;5012252;28;20100;-87
2022/03/04 11:59:59;;;;;;;20.73;12.82;;;6.70;99.90;;;;;;4995561;28;20041;-86
2022/03/04 12:02:28;;;;;;;20.92;13.90;;;6.80;99.90;;;;;;5029805;28;20033;-86
2022/03/04 12:05:13;;;;;;;20.80;13.50;;;6.90;99.90;;;;;;5018090;28;20045;-86
2022/03/04 12:07:41;;;;;;;21.45;13.57;;;7.10;99.90;;;;;;5033341;28;20049;-87
2022/03/04 12:10:30;;;;;;;20.67;13.30;;;7.10;99.90;;;;;;5016621;28;20514;-86
2022/03/04 12:12:59;;;;;;;21.77;13.80;;;7.30;99.90;;;;;;5026498;28;20457;-86
2022/03/04 12:15:25;;;;;;;20.25;13.02;;;7.40;99.90;;;;;;5016892;28;20055;-86
2022/03/04 12:18:02;;;;;;;19.58;12.63;;;7.60;99.90;;;;;;5032851;28;20041;-87
2022/03/04 12:20:40;;;;;;;20.95;13.20;;;7.80;99.90;;;;;;5016497;28;20037;-86
2022/03/04 12:23:12;;;;;;;20.98;12.55;;;8.00;99.90;;;;;;5016451;28;20112;-86
2022/03/04 12:25:56;;;;;;;21.13;12.80;;;8.00;99.90;;;;;;5033359;28;20510;-87
2022/03/04 12:28:23;;;;;;;;;;;8.10;99.90;;;;;;5033050;28;20502;-86
2022/03/04 12:31:11;;;;;;;19.70;11.85;;;8.30;99.90;;;;;;5033419;28;19917;-87
2022/03/04 12:33:39;;;;;;;19.38;11.77;;;8.40;99.90;;;;;;5030829;28;20044;-87
2022/03/04 12:36:09;;;;;;;18.92;11.82;;;8.40;99.90;;;;;;5032401;28;20045;-87